Time;durP1;ratioP1;P1;durP2;ratioP2;P2;SDS_P1;SDS_P2;PMS_P1;PMS_P2;Temp;Humidity;BMP_temperature;BMP_pressure;BME280_temperature;BME280_humidity;BME280_pressure;Samples;Min_cycle;Max_cycle;Signal;HPM_P1;HPM_P2
2023/08/22 00:00:29;;;;;;;5.53;4.40;;;22.90;99.90;;;23.12;100.00;97608.41;5034115;28;20036;-38
2023/08/22 00:02:56;;;;;;;5.68;4.38;;;22.90;99.90;;;23.13;100.00;97604.69;5037114;28;20029;-38
2023/08/22 00:05:23;;;;;;;5.53;4.30;;;22.90;99.90;;;23.06;100.00;97591.78;5038745;28;20033;-38
2023/08/22 00:07:49;;;;;;;6.75;4.78;;;22.90;99.90;;;23.08;100.00;97606.91;5035336;28;20056;-37
2023/08/22 00:10:15;;;;;;;5.40;4.47;;;22.90;99.90;;;23.04;100.00;97608.97;5038307;28;20028;-37
2023/08/22 00:12:42;;;;;;;5.35;4.57;;;22.90;99.90;;;22.96;100.00;97606.09;5030112;28;20021;-37
2023/08/22 00:15:12;;;;;;;5.72;4.70;;;22.90;99.90;;;22.60;100.00;97551.75;5031724;28;20051;-37
2023/08/22 00:17:38;;;;;;;4.95;4.20;;;22.80;99.90;;;22.89;100.00;97608.44;5030356;28;20017;-37
2023/08/22 00:20:06;;;;;;;5.35;4.80;;;22.80;99.90;;;22.84;100.00;97607.97;5031816;28;20041;-37
2023/08/22 00:22:31;;;;;;;6.78;4.32;;;22.70;99.90;;;22.83;100.00;97601.75;5029646;28;20048;-37
2023/08/22 00:24:57;;;;;;;5.13;4.60;;;22.70;99.90;;;22.81;100.00;97600.19;5040641;28;20029;-37
2023/08/22 00:27:23;;;;;;;5.55;4.63;;;22.70;99.90;;;22.78;100.00;97603.13;5042195;28;20068;-37
2023/08/22 00:29:48;;;;;;;6.70;4.40;;;22.70;99.90;;;22.76;100.00;97594.34;5032345;28;20041;-37
2023/08/22 00:32:14;;;;;;;6.18;4.63;;;22.70;99.90;;;22.74;100.00;97596.28;5038767;28;20040;-37
2023/08/22 00:34:40;;;;;;;8.60;4.75;;;22.60;99.90;;;22.74;100.00;97591.78;5040861;28;20433;-37
2023/08/22 00:37:06;;;;;;;4.75;4.30;;;22.60;99.90;;;22.61;100.00;97581.19;5041012;28;20032;-37
2023/08/22 00:39:32;;;;;;;9.63;5.15;;;22.60;99.90;;;22.67;100.00;97590.59;5035902;28;20064;-37
2023/08/22 00:41:58;;;;;;;7.55;5.20;;;22.50;99.90;;;22.63;100.00;97587.31;5037091;28;20031;-37
2023/08/22 00:44:24;;;;;;;5.53;4.60;;;22.60;99.90;;;22.69;100.00;97583.25;5035943;28;20059;-37
2023/08/22 00:46:50;;;;;;;5.13;4.18;;;22.60;99.90;;;22.72;100.00;97587.50;5041325;28;20037;-37
2023/08/22 00:49:16;;;;;;;6.40;4.32;;;22.60;99.90;;;22.71;100.00;97591.19;5041901;28;20056;-37
2023/08/22 00:51:42;;;;;;;6.32;4.60;;;22.60;99.90;;;22.68;100.00;97581.53;5043597;28;20032;-37
2023/08/22 00:54:13;;;;;;;5.28;4.70;;;22.60;99.90;;;22.66;100.00;97581.66;5035013;28;20024;-37
2023/08/22 00:56:40;;;;;;;4.50;4.10;;;22.50;99.90;;;22.67;100.00;97579.84;5036101;28;20029;-37
2023/08/22 00:59:08;;;;;;;4.97;4.30;;;22.60;99.90;;;22.57;100.00;97560.91;5038916;28;20029;-37
2023/08/22 01:01:33;;;;;;;4.53;3.97;;;22.50;99.90;;;22.66;100.00;97578.97;5039633;28;20511;-37
2023/08/22 01:03:59;;;;;;;6.05;4.78;;;22.60;99.90;;;22.66;100.00;97580.81;5034723;28;20033;-37
2023/08/22 01:06:51;;;;;;;5.93;4.78;;;22.50;99.90;;;22.67;100.00;97583.38;5033789;28;20072;-37
2023/08/22 01:09:48;;;;;;;5.15;3.78;;;22.50;99.90;;;22.69;100.00;97572.50;5038638;28;20029;-37
2023/08/22 01:12:36;;;;;;;5.55;4.00;;;22.50;99.90;;;22.62;100.00;97569.44;5039437;28;20493;-37
2023/08/22 01:15:26;;;;;;;5.63;3.65;;;22.50;99.90;;;22.64;100.00;97575.53;5037324;28;20048;-37
2023/08/22 01:17:56;;;;;;;4.93;3.65;;;22.50;99.90;;;22.67;100.00;97575.31;5034499;28;20057;-37
2023/08/22 01:20:24;;;;;;;7.13;3.67;;;22.50;99.90;;;22.68;100.00;97576.16;5034062;28;20531;-37
2023/08/22 01:22:50;;;;;;;5.28;3.63;;;22.50;99.90;;;22.63;100.00;97570.28;5032241;28;20044;-37
2023/08/22 01:25:16;;;;;;;6.57;4.15;;;22.50;99.90;;;22.58;100.00;97570.69;5041626;28;20029;-37
2023/08/22 01:28:13;;;;;;;7.18;3.92;;;22.40;99.90;;;22.51;100.00;97572.19;5035884;28;22906;-37
2023/08/22 01:30:58;;;;;;;5.90;4.40;;;22.40;99.90;;;22.42;100.00;97562.22;5032460;28;20029;-37
2023/08/22 01:34:11;;;;;;;6.50;4.07;;;22.30;99.90;;;22.37;100.00;97562.56;5034312;28;20557;-37
2023/08/22 01:36:37;;;;;;;6.00;4.50;;;22.30;99.90;;;22.24;100.00;97549.28;5034299;28;20047;-37
2023/08/22 01:39:07;;;;;;;4.82;4.10;;;22.20;99.90;;;22.26;100.00;97568.84;5038918;28;20044;-37
2023/08/22 01:41:34;;;;;;;6.18;4.40;;;22.20;99.90;;;22.27;100.00;97570.56;5037927;28;20029;-37
2023/08/22 01:44:03;;;;;;;4.53;4.07;;;22.10;99.90;;;22.23;100.00;97576.25;5034976;28;20029;-37
2023/08/22 01:46:29;;;;;;;7.43;4.50;;;22.10;99.90;;;22.15;100.00;97568.84;5040416;28;20029;-37
2023/08/22 01:48:55;;;;;;;5.95;4.05;;;22.10;99.90;;;22.10;100.00;97562.97;5041565;28;20025;-37
2023/08/22 01:51:21;;;;;;;4.75;3.70;;;22.10;99.90;;;22.16;100.00;97575.03;5039180;28;20080;-37
2023/08/22 01:53:47;;;;;;;4.85;3.70;;;22.10;99.90;;;22.14;100.00;97569.78;5035743;28;20037;-37
2023/08/22 01:56:12;;;;;;;3.92;3.40;;;22.00;99.90;;;22.15;100.00;97568.84;5041898;28;20451;-37
2023/08/22 01:58:38;;;;;;;4.47;3.80;;;22.00;99.90;;;22.19;100.00;97564.91;5036359;28;20452;-37
2023/08/22 02:01:11;;;;;;;5.07;3.78;;;22.00;99.90;;;22.18;100.00;97567.72;5037843;28;20029;-37
2023/08/22 02:03:38;;;;;;;4.43;3.55;;;22.00;99.90;;;22.15;100.00;97563.47;5034482;28;20428;-37
2023/08/22 02:06:04;;;;;;;4.88;3.78;;;22.00;99.90;;;22.14;100.00;97561.75;5041062;28;20029;-37
2023/08/22 02:08:30;;;;;;;5.57;3.72;;;22.00;99.90;;;22.12;100.00;97559.16;5032388;28;20048;-37
2023/08/22 02:10:56;;;;;;;6.47;3.75;;;22.00;99.90;;;22.09;100.00;97566.63;5032754;28;20046;-37
2023/08/22 02:13:22;;;;;;;5.43;3.65;;;22.00;99.90;;;22.05;100.00;97557.97;5036243;28;20071;-37
2023/08/22 02:15:47;;;;;;;5.80;3.47;;;21.90;99.90;;;22.04;100.00;97560.81;5034832;28;20130;-37
2023/08/22 02:18:19;;;;;;;4.13;3.45;;;21.90;99.90;;;22.04;100.00;97558.97;5041066;28;20041;-37
2023/08/22 02:20:45;;;;;;;3.97;3.30;;;21.90;99.90;;;22.00;100.00;97553.94;5025622;28;20069;-37
2023/08/22 02:23:10;;;;;;;3.70;3.30;;;21.90;99.90;;;22.00;100.00;97553.94;5037187;28;20434;-37
2023/08/22 02:25:36;;;;;;;3.55;3.20;;;21.90;99.90;;;22.00;100.00;97554.81;5031475;28;20504;-37
2023/08/22 02:28:02;;;;;;;5.32;3.40;;;21.90;99.90;;;21.92;100.00;97546.53;5035540;28;20025;-37
2023/08/22 02:30:28;;;;;;;3.42;3.08;;;21.80;99.90;;;21.89;100.00;97547.63;5031809;28;20053;-37
2023/08/22 02:32:53;;;;;;;4.00;3.28;;;21.80;99.90;;;21.85;100.00;97556.91;5035060;28;20029;-37
2023/08/22 02:35:22;;;;;;;5.18;3.53;;;21.70;99.90;;;21.70;100.00;97534.84;5034409;28;20035;-37
2023/08/22 02:37:50;;;;;;;4.85;3.75;;;21.70;99.90;;;21.80;100.00;97561.78;5037683;28;20060;-37
2023/08/22 02:40:15;;;;;;;5.30;3.28;;;21.70;99.90;;;21.76;100.00;97554.13;5035174;28;20040;-37
2023/08/22 02:42:41;;;;;;;3.85;3.30;;;21.70;99.90;;;21.72;100.00;97556.19;5039132;28;20021;-37
2023/08/22 02:45:07;;;;;;;5.38;3.88;;;21.60;99.90;;;21.70;100.00;97558.16;5033358;28;20272;-37
2023/08/22 02:47:33;;;;;;;7.75;4.07;;;21.60;99.90;;;21.67;100.00;97558.38;5037675;28;20309;-37
2023/08/22 02:49:59;;;;;;;9.35;4.40;;;21.60;99.90;;;21.65;100.00;97568.38;5034314;28;20353;-37
2023/08/22 02:52:24;;;;;;;7.85;4.78;;;21.50;99.90;;;21.64;100.00;97572.91;5038075;28;20041;-37
2023/08/22 02:54:51;;;;;;;5.57;4.30;;;21.50;99.90;;;21.62;100.00;97565.94;5034803;28;20545;-37
2023/08/22 02:57:17;;;;;;;5.35;4.40;;;21.50;99.90;;;21.54;100.00;97555.81;5033523;28;20028;-37
2023/08/22 02:59:43;;;;;;;8.77;4.20;;;21.50;99.90;;;21.57;100.00;97560.97;5035292;28;20038;-37
2023/08/22 03:02:08;;;;;;;7.68;4.78;;;21.40;99.90;;;21.53;100.00;97556.78;5035311;28;20057;-37
2023/08/22 03:04:36;;;;;;;5.32;4.40;;;21.40;99.90;;;21.43;100.00;97550.44;5028714;28;20025;-37
2023/08/22 03:07:04;;;;;;;6.32;4.63;;;21.40;99.90;;;21.46;100.00;97560.94;5032566;28;20033;-37
2023/08/22 03:09:30;;;;;;;4.50;3.90;;;21.30;99.90;;;21.34;100.00;97542.13;5035517;28;20082;-37
2023/08/22 03:11:55;;;;;;;5.47;4.40;;;21.30;99.90;;;21.40;100.00;97556.88;5029295;28;20286;-37
2023/08/22 03:14:21;;;;;;;5.03;4.03;;;21.30;99.90;;;21.36;100.00;97556.25;5029904;28;20033;-37
2023/08/22 03:16:47;;;;;;;6.00;4.07;;;21.30;99.90;;;21.33;100.00;97555.66;5037230;28;20104;-37
2023/08/22 03:19:13;;;;;;;7.03;4.38;;;21.20;99.90;;;21.31;100.00;97547.72;5036301;28;20405;-37
2023/08/22 03:21:39;;;;;;;5.35;3.95;;;21.20;99.90;;;21.24;100.00;97551.00;5035027;28;20353;-37
2023/08/22 03:24:05;;;;;;;5.25;4.30;;;21.20;99.90;;;21.28;100.00;97550.66;5027604;28;20489;-37
2023/08/22 03:26:30;;;;;;;7.03;4.10;;;21.20;99.90;;;21.22;100.00;97548.44;5033016;28;20036;-37
2023/08/22 03:28:56;;;;;;;6.95;4.50;;;21.20;99.90;;;21.23;100.00;97555.53;5032994;28;20084;-37
2023/08/22 03:31:25;;;;;;;8.65;4.25;;;21.20;99.90;;;21.20;100.00;97542.34;5031505;28;20029;-37
2023/08/22 03:33:51;;;;;;;5.75;4.85;;;21.20;99.90;;;21.26;100.00;97554.41;5033571;28;20036;-37
2023/08/22 03:36:17;;;;;;;7.78;5.72;;;21.20;99.90;;;21.27;100.00;97553.44;5031648;28;20037;-37
2023/08/22 03:38:43;;;;;;;9.45;6.05;;;21.20;99.90;;;21.24;100.00;97551.84;5036973;28;20441;-37
2023/08/22 03:41:08;;;;;;;6.57;5.53;;;21.20;99.90;;;21.22;100.00;97556.47;5033816;28;20497;-37
2023/08/22 03:43:34;;;;;;;7.25;5.18;;;21.20;99.90;;;21.15;100.00;97549.88;5034451;28;20033;-37
2023/08/22 03:46:00;;;;;;;6.65;5.00;;;21.20;99.90;;;21.21;100.00;97552.09;5034002;28;20485;-37
2023/08/22 03:48:25;;;;;;;6.43;4.95;;;21.10;99.90;;;21.21;100.00;97559.28;5036445;28;20087;-38
2023/08/22 03:50:51;;;;;;;11.80;5.63;;;21.10;99.90;;;21.20;100.00;97553.06;5028563;28;20081;-37
2023/08/22 03:53:17;;;;;;;5.35;4.85;;;21.10;99.90;;;21.18;100.00;97557.69;5036366;28;20036;-37
2023/08/22 03:55:43;;;;;;;6.70;5.13;;;21.10;99.90;;;21.17;100.00;97556.84;5031455;28;20065;-37
2023/08/22 03:58:10;;;;;;;6.75;5.05;;;21.10;99.90;;;21.14;100.00;97553.56;5036569;28;20037;-37
2023/08/22 04:00:36;;;;;;;6.97;4.95;;;21.10;99.90;;;21.11;100.00;97551.94;5034530;28;20029;-37
2023/08/22 04:03:02;;;;;;;5.50;4.95;;;21.00;99.90;;;21.07;100.00;97544.28;5035592;28;20425;-37
2023/08/22 04:05:28;;;;;;;6.32;4.85;;;21.00;99.90;;;20.98;100.00;97544.00;5031566;28;20099;-37
2023/08/22 04:07:54;;;;;;;4.97;4.40;;;20.90;99.90;;;20.94;100.00;97544.34;5035959;28;20075;-37
2023/08/22 04:10:20;;;;;;;5.25;4.75;;;20.90;99.90;;;20.89;100.00;97542.03;5038894;28;20997;-37
2023/08/22 04:12:46;;;;;;;6.97;5.07;;;20.80;99.90;;;20.86;100.00;97549.47;5038899;28;20041;-37
2023/08/22 04:15:14;;;;;;;5.03;4.53;;;20.80;99.90;;;20.81;100.00;97548.94;5034862;28;20048;-37
2023/08/22 04:17:41;;;;;;;5.60;4.65;;;20.70;99.90;;;20.76;100.00;97552.84;5042399;28;20108;-37
2023/08/22 04:20:10;;;;;;;5.45;4.50;;;20.70;99.90;;;20.72;100.00;97559.38;5038327;28;20075;-37
2023/08/22 04:22:36;;;;;;;5.60;4.80;;;20.70;99.90;;;20.69;100.00;97567.69;5038887;28;20036;-37
2023/08/22 04:25:03;;;;;;;5.28;4.78;;;20.60;99.90;;;20.68;100.00;97560.59;5039817;28;20421;-37
2023/08/22 04:27:29;;;;;;;7.05;5.15;;;20.60;99.90;;;20.66;100.00;97573.25;5038937;28;20039;-37
2023/08/22 04:29:54;;;;;;;8.57;5.13;;;20.60;99.90;;;20.65;100.00;97571.53;5036376;28;20029;-37
2023/08/22 04:32:20;;;;;;;6.45;5.22;;;20.60;99.90;;;20.64;100.00;97567.16;5035812;28;20033;-37
2023/08/22 04:34:46;;;;;;;7.00;5.95;;;20.60;99.90;;;20.59;100.00;97562.09;5044004;28;20165;-37
2023/08/22 04:37:11;;;;;;;7.18;5.40;;;20.60;99.90;;;20.59;100.00;97561.25;5037407;28;20032;-37
2023/08/22 04:39:37;;;;;;;8.15;6.65;;;20.50;99.90;;;20.59;100.00;97570.16;5038588;28;20377;-37
2023/08/22 04:42:03;;;;;;;8.77;5.57;;;20.50;99.90;;;20.59;100.00;97571.97;5038093;28;20036;-37
2023/08/22 04:44:28;;;;;;;8.80;5.63;;;20.50;99.90;;;20.62;100.00;97581.63;5041667;28;20056;-37
2023/08/22 04:46:54;;;;;;;8.43;6.35;;;20.50;99.90;;;20.64;100.00;97580.56;5033750;28;20030;-37
2023/08/22 04:49:20;;;;;;;8.32;6.20;;;20.60;99.90;;;20.68;100.00;97592.75;5039907;28;20028;-37
2023/08/22 04:51:45;;;;;;;7.80;6.20;;;20.60;99.90;;;20.68;100.00;97590.06;5027568;28;20025;-37
2023/08/22 04:54:11;;;;;;;6.75;5.57;;;20.60;99.90;;;20.70;100.00;97593.50;5038367;28;20029;-37
2023/08/22 04:56:37;;;;;;;8.10;6.07;;;20.60;99.90;;;20.70;100.00;97584.59;5035794;28;20036;-37
2023/08/22 04:59:02;;;;;;;7.43;5.70;;;20.60;99.90;;;20.70;100.00;97588.13;5036351;28;20041;-37
2023/08/22 05:01:28;;;;;;;7.88;6.32;;;20.60;99.90;;;20.70;100.00;97584.59;5037368;28;20036;-37
2023/08/22 05:03:54;;;;;;;7.63;6.38;;;20.60;99.90;;;20.65;100.00;97582.25;5030679;28;20395;-37
2023/08/22 05:06:20;;;;;;;8.20;6.47;;;20.60;99.90;;;20.72;100.00;97593.38;5034104;28;20152;-37
2023/08/22 05:08:45;;;;;;;8.93;6.75;;;20.60;99.90;;;20.73;100.00;97598.63;5036482;28;20118;-37
2023/08/22 05:11:11;;;;;;;6.75;5.93;;;20.60;99.90;;;20.77;100.00;97601.94;5031617;28;20036;-37
2023/08/22 05:13:37;;;;;;;7.78;5.93;;;20.70;99.90;;;20.84;100.00;97596.97;5032877;28;20514;-37
2023/08/22 05:16:02;;;;;;;7.55;5.72;;;20.70;99.90;;;20.91;100.00;97600.91;5029983;28;20028;-37
2023/08/22 05:18:28;;;;;;;6.93;5.68;;;20.80;99.90;;;20.96;100.00;97602.25;5037678;28;20496;-37
2023/08/22 05:20:54;;;;;;;6.30;5.70;;;20.90;99.90;;;21.00;100.00;97593.97;5033760;28;20036;-37
2023/08/22 05:23:20;;;;;;;6.80;6.13;;;20.90;99.90;;;21.09;100.00;97596.81;5033613;28;20025;-37
2023/08/22 05:25:45;;;;;;;7.97;6.30;;;21.00;99.90;;;21.15;100.00;97599.00;5035377;28;20794;-37
2023/08/22 05:28:11;;;;;;;9.13;6.53;;;21.10;99.90;;;21.21;100.00;97592.34;5034403;28;20021;-35
2023/08/22 05:30:38;;;;;;;8.15;6.43;;;21.10;99.90;;;21.29;100.00;97605.16;5040213;28;20059;-37
2023/08/22 05:33:04;;;;;;;7.82;6.28;;;21.10;99.90;;;21.34;100.00;97600.28;5039957;28;20025;-35
2023/08/22 05:35:30;;;;;;;7.88;7.00;;;21.20;99.90;;;21.34;100.00;97594.91;5040245;28;20032;-35
2023/08/22 05:37:56;;;;;;;12.70;6.95;;;21.30;99.90;;;21.42;100.00;97603.22;5030494;28;20021;-36
2023/08/22 05:40:21;;;;;;;9.07;7.10;;;21.30;99.90;;;21.42;100.00;97600.53;5034531;28;20033;-36
2023/08/22 05:42:47;;;;;;;13.57;7.50;;;21.40;99.90;;;21.43;100.00;97582.63;5037834;28;20414;-36
2023/08/22 05:45:13;;;;;;;8.73;7.00;;;21.40;99.90;;;21.48;100.00;97581.31;5036850;28;20036;-36
2023/08/22 05:47:38;;;;;;;9.30;6.85;;;21.50;99.90;;;21.63;100.00;97600.72;5037331;28;20437;-36
2023/08/22 05:50:05;;;;;;;8.27;6.32;;;21.60;99.90;;;21.61;100.00;97585.72;5041253;28;20029;-36
2023/08/22 05:52:30;;;;;;;5.85;5.25;;;21.60;99.90;;;21.81;100.00;97606.44;5036764;28;20056;-36
2023/08/22 05:54:57;;;;;;;8.10;6.18;;;21.70;99.90;;;21.87;100.00;97605.09;5038906;28;20405;-36
2023/08/22 05:57:22;;;;;;;5.82;5.20;;;21.80;99.90;;;21.95;100.00;97605.34;5034731;28;20063;-36
2023/08/22 05:59:51;;;;;;;7.00;5.93;;;21.90;99.90;;;22.04;100.00;97606.44;5036820;28;20076;-36
2023/08/22 06:02:17;;;;;;;8.73;5.85;;;22.00;99.90;;;22.02;100.00;97592.28;5037225;28;20192;-36
2023/08/22 06:04:46;;;;;;;8.57;5.70;;;22.10;99.90;;;22.21;100.00;97603.25;5037779;28;20033;-36
2023/08/22 06:07:12;;;;;;;6.95;5.75;;;22.20;99.90;;;22.29;100.00;97605.34;5037667;28;20029;-36
2023/08/22 06:09:37;;;;;;;11.10;6.60;;;22.20;99.90;;;22.35;100.00;97610.22;5037206;28;20431;-36
2023/08/22 06:12:04;;;;;;;8.50;6.32;;;22.30;99.90;;;22.40;100.00;97607.16;5038479;28;20037;-36
2023/08/22 06:14:30;;;;;;;6.32;5.28;;;22.40;99.90;;;22.51;100.00;97600.91;5031623;28;20045;-36
2023/08/22 06:16:57;;;;;;;7.75;5.85;;;22.40;99.90;;;22.53;100.00;97609.69;5037921;28;20033;-36
2023/08/22 06:19:23;;;;;;;8.45;6.03;;;22.50;99.90;;;22.57;100.00;97611.97;5038077;28;20105;-36
2023/08/22 06:21:48;;;;;;;7.57;6.22;;;22.60;99.90;;;22.66;100.00;97605.00;5028676;28;20292;-36
2023/08/22 06:24:14;;;;;;;8.93;5.88;;;22.60;99.90;;;22.68;100.00;97598.53;5035129;28;20381;-36
2023/08/22 06:26:41;;;;;;;5.90;5.30;;;22.70;99.90;;;22.85;100.00;97605.16;5038207;28;20032;-36
2023/08/22 06:29:07;;;;;;;6.45;5.65;;;22.80;99.90;;;22.95;100.00;97604.38;5040215;28;20029;-36
2023/08/22 06:31:33;;;;;;;7.25;5.68;;;22.90;99.90;;;23.03;100.00;97600.06;5036112;28;20122;-36
2023/08/22 06:33:58;;;;;;;6.13;5.13;;;22.90;99.90;;;23.13;100.00;97607.38;5036078;28;20116;-36
2023/08/22 06:36:24;;;;;;;6.80;5.18;;;23.10;99.90;;;23.22;100.00;97602.09;5038296;28;20036;-36
2023/08/22 06:38:52;;;;;;;6.88;5.63;;;23.10;99.90;;;23.20;100.00;97593.31;5035624;28;20029;-36
2023/08/22 06:41:18;;;;;;;8.27;5.45;;;23.20;99.90;;;23.41;100.00;97611.28;5033586;28;20037;-36
2023/08/22 06:43:44;;;;;;;6.63;5.10;;;23.30;99.90;;;23.51;100.00;97609.50;5034107;28;20120;-36
2023/08/22 06:46:10;;;;;;;7.07;5.00;;;23.40;99.90;;;23.59;100.00;97604.28;5036064;28;20115;-36
2023/08/22 06:48:35;;;;;;;9.93;5.63;;;23.60;99.90;;;23.66;100.00;97609.16;5034275;28;20401;-36
2023/08/22 06:51:01;;;;;;;7.53;5.32;;;23.60;99.90;;;23.73;100.00;97603.09;5033035;28;20040;-36
2023/08/22 06:53:27;;;;;;;5.85;4.55;;;23.70;99.90;;;23.91;100.00;97613.28;5035485;28;20401;-36
2023/08/22 06:55:55;;;;;;;6.40;5.20;;;23.80;99.90;;;24.03;100.00;97614.88;5022378;28;20224;-36
2023/08/22 06:58:21;;;;;;;5.65;4.43;;;24.00;99.90;;;24.15;100.00;97621.00;5045899;28;20025;-36
2023/08/22 07:00:46;;;;;;;5.63;4.70;;;24.10;99.90;;;24.24;100.00;97619.34;5031884;28;20499;-37
2023/08/22 07:03:12;;;;;;;5.63;4.72;;;24.20;99.90;;;24.35;100.00;97625.50;5034065;28;20173;-36
2023/08/22 07:05:38;;;;;;;6.65;5.13;;;24.30;99.90;;;24.49;100.00;97626.91;5031052;28;20314;-36
2023/08/22 07:08:04;;;;;;;9.40;5.30;;;24.40;99.90;;;24.59;100.00;97616.19;5037830;28;20041;-36
2023/08/22 07:10:29;;;;;;;7.45;5.00;;;24.50;99.90;;;24.74;100.00;97622.03;5032527;28;20028;-36
2023/08/22 07:12:55;;;;;;;7.22;5.07;;;24.70;99.90;;;24.93;100.00;97632.84;5032650;28;20427;-36
2023/08/22 07:15:21;;;;;;;6.10;5.40;;;24.90;99.90;;;25.14;100.00;97635.41;5032467;28;20029;-36
2023/08/22 07:17:47;;;;;;;6.78;5.40;;;25.00;99.90;;;25.27;100.00;97634.28;5035731;28;20029;-36
2023/08/22 07:20:13;;;;;;;6.45;4.75;;;25.10;99.90;;;25.35;100.00;97637.09;5038974;28;20507;-36
2023/08/22 07:22:39;;;;;;;5.82;4.80;;;25.20;99.90;;;25.44;100.00;97640.78;5034142;28;20033;-36
2023/08/22 07:25:05;;;;;;;5.47;4.45;;;25.20;99.90;;;25.49;100.00;97633.97;5033326;28;20512;-36
2023/08/22 07:27:31;;;;;;;7.30;4.70;;;25.40;99.90;;;25.52;100.00;97640.94;5037487;28;20025;-36
2023/08/22 07:29:57;;;;;;;4.97;4.20;;;25.40;99.90;;;25.57;100.00;97638.63;5033485;28;20116;-36
2023/08/22 07:32:23;;;;;;;6.38;4.63;;;25.40;99.90;;;25.60;100.00;97637.50;5031035;28;20035;-36
2023/08/22 07:34:48;;;;;;;6.68;4.70;;;25.40;99.90;;;25.66;100.00;97640.47;5037940;28;20068;-36
2023/08/22 07:37:15;;;;;;;5.40;4.20;;;25.50;99.90;;;25.78;100.00;97643.84;5033770;28;20033;-36
2023/08/22 07:39:42;;;;;;;5.63;4.47;;;25.60;99.90;;;25.95;100.00;97642.28;5032451;28;20026;-36
2023/08/22 07:42:08;;;;;;;8.65;4.68;;;25.70;99.90;;;26.09;100.00;97641.78;5032285;28;20083;-36
2023/08/22 07:44:34;;;;;;;5.95;5.07;;;25.80;99.90;;;26.25;100.00;97640.28;5038850;28;20025;-36
2023/08/22 07:47:00;;;;;;;5.97;4.50;;;26.00;99.90;;;26.40;100.00;97649.63;5034637;28;20033;-36
2023/08/22 07:49:26;;;;;;;11.90;4.65;;;26.10;99.90;;;26.52;100.00;97652.09;5038741;28;20427;-36
2023/08/22 07:51:52;;;;;;;7.88;5.47;;;26.20;99.90;;;26.58;99.84;97648.81;5034315;28;20100;-36
2023/08/22 07:54:18;;;;;;;5.10;4.32;;;26.40;99.90;;;26.68;98.23;97649.63;5034826;28;20084;-36
2023/08/22 07:56:45;;;;;;;9.02;4.80;;;26.40;99.90;;;26.74;98.10;97654.44;5028698;28;20041;-37
2023/08/22 07:59:12;;;;;;;6.75;5.07;;;26.40;99.90;;;26.79;97.21;97652.13;5025927;28;20107;-36
2023/08/22 08:01:38;;;;;;;7.20;5.40;;;26.50;99.90;;;26.87;97.27;97655.91;5038792;28;20438;-36
2023/08/22 08:04:04;;;;;;;9.63;4.50;;;26.60;99.90;;;26.99;99.47;97647.41;5034303;28;20371;-36
2023/08/22 08:06:34;;;;;;;6.88;4.45;;;26.70;99.90;;;27.09;96.36;97647.31;5034592;28;20549;-36
2023/08/22 08:09:00;;;;;;;7.30;4.60;;;26.80;99.90;;;27.14;91.33;97633.34;5030427;28;20067;-36
2023/08/22 08:11:29;;;;;;;8.00;4.35;;;26.90;99.90;;;27.24;89.82;97645.78;5030181;28;20397;-36
2023/08/22 08:13:55;;;;;;;6.22;4.40;;;27.00;99.90;;;27.34;90.25;97658.41;5033651;28;20484;-36
2023/08/22 08:16:21;;;;;;;6.28;4.25;;;27.00;99.90;;;27.30;90.10;97638.91;5019870;28;20040;-36
2023/08/22 08:18:51;;;;;;;7.35;4.65;;;27.10;99.90;;;27.45;90.31;97655.44;5024912;28;20036;-36
2023/08/22 08:21:17;;;;;;;5.38;4.43;;;27.10;99.90;;;27.52;89.53;97648.41;5039244;28;20020;-36
2023/08/22 08:23:44;;;;;;;5.55;4.13;;;27.20;99.90;;;27.61;88.75;97644.75;5032253;28;20416;-36
2023/08/22 08:26:11;;;;;;;6.03;4.65;;;27.30;99.90;;;27.65;89.69;97636.31;5028878;28;20083;-36
2023/08/22 08:28:37;;;;;;;7.18;4.22;;;27.40;99.90;;;27.76;84.13;97646.88;5029987;28;20086;-35
2023/08/22 08:31:04;;;;;;;4.72;4.22;;;27.40;99.90;;;27.80;81.65;97648.28;5031332;28;20051;-35
2023/08/22 08:33:31;;;;;;;7.00;4.50;;;27.50;99.90;;;27.80;85.80;97642.84;5034846;28;20036;-35
2023/08/22 08:35:57;;;;;;;7.70;3.90;;;27.50;99.90;;;27.86;83.59;97642.19;5036277;28;20032;-35
2023/08/22 08:38:22;;;;;;;7.28;4.55;;;27.60;99.90;;;27.90;83.36;97649.03;5030693;28;20025;-35
2023/08/22 08:40:48;;;;;;;10.30;4.85;;;27.60;99.90;;;27.89;82.04;97641.88;5032714;28;20037;-36
2023/08/22 08:43:14;;;;;;;5.97;4.50;;;27.70;99.90;;;27.94;82.39;97652.25;5028161;28;20033;-35
2023/08/22 08:45:40;;;;;;;6.00;4.70;;;27.70;99.90;;;27.93;88.22;97648.72;5034860;28;20029;-35
2023/08/22 08:48:07;;;;;;;7.30;4.38;;;27.60;99.90;;;27.95;84.95;97645.84;5039770;28;20036;-35
2023/08/22 08:50:34;;;;;;;5.82;5.22;;;27.70;99.90;;;27.96;81.68;97653.81;5030844;28;20044;-35
2023/08/22 08:52:59;;;;;;;5.72;4.35;;;27.70;99.90;;;28.01;83.05;97647.06;5035704;28;20102;-35
2023/08/22 08:55:25;;;;;;;6.97;5.07;;;27.70;99.90;;;28.04;87.45;97641.31;5034663;28;20045;-36
2023/08/22 08:57:56;;;;;;;8.38;5.18;;;27.80;99.90;;;27.97;83.19;97643.81;5032936;28;20188;-36
2023/08/22 09:00:22;;;;;;;5.07;4.57;;;27.80;99.90;;;28.09;83.32;97641.69;5033168;28;20059;-36
2023/08/22 09:02:47;;;;;;;8.43;4.63;;;27.80;99.90;;;28.13;82.28;97643.06;5033209;28;20059;-36
2023/08/22 09:05:15;;;;;;;6.05;4.60;;;27.90;99.90;;;28.19;83.55;97642.41;5031164;28;20033;-35
2023/08/22 09:07:43;;;;;;;5.32;4.47;;;27.90;99.90;;;28.28;80.99;97644.16;5036281;28;20028;-35
2023/08/22 09:10:10;;;;;;;9.02;4.72;;;28.00;99.90;;;28.26;78.82;97648.88;5039659;28;20623;-36
2023/08/22 09:12:37;;;;;;;6.65;4.40;;;28.00;99.90;;;28.26;77.48;97642.59;5029487;28;20355;-35
2023/08/22 09:15:17;;;;;;;5.60;4.60;;;28.00;99.90;;;28.15;78.78;97630.19;5038780;28;20033;-36
2023/08/22 09:17:43;;;;;;;7.30;4.85;;;28.00;99.90;;;28.22;78.76;97633.09;5035907;28;20028;-36
2023/08/22 09:20:10;;;;;;;8.73;4.97;;;28.00;99.90;;;28.31;81.29;97641.09;5037801;28;20033;-36
2023/08/22 09:22:35;;;;;;;6.57;4.80;;;28.00;99.90;;;28.41;80.90;97631.97;5035139;28;20516;-36
2023/08/22 09:25:04;;;;;;;7.25;4.60;;;28.10;99.90;;;28.51;84.18;97638.13;5038364;28;20028;-36
2023/08/22 09:27:29;;;;;;;8.85;4.45;;;28.20;99.90;;;28.61;79.25;97633.47;5042819;28;20035;-36
2023/08/22 09:30:05;;;;;;;6.20;4.57;;;28.30;99.90;;;28.68;78.23;97626.34;5036811;28;20028;-36
2023/08/22 09:32:31;;;;;;;4.90;4.38;;;28.40;99.90;;;28.72;76.98;97630.44;5038968;28;20043;-36
2023/08/22 09:35:00;;;;;;;4.75;4.32;;;28.40;99.90;;;28.81;78.37;97627.75;5038786;28;20061;-36
2023/08/22 09:37:33;;;;;;;5.53;4.43;;;28.50;99.90;;;28.90;80.70;97630.28;5040694;28;20025;-36
2023/08/22 09:40:07;;;;;;;9.38;4.95;;;28.70;99.90;;;28.97;76.87;97629.63;5034236;28;20056;-36
2023/08/22 09:42:39;;;;;;;10.70;5.05;;;28.70;99.90;;;28.95;75.50;97627.09;5035715;28;20025;-36
2023/08/22 09:45:06;;;;;;;7.82;4.57;;;28.70;99.90;;;28.91;73.52;97629.28;5027462;28;20026;-38
2023/08/22 09:47:33;;;;;;;5.15;4.32;;;28.60;99.90;;;28.99;75.75;97627.59;5032462;28;20477;-36
2023/08/22 09:50:04;;;;;;;6.70;4.82;;;28.70;99.90;;;29.07;71.66;97620.31;5025390;28;20080;-37
2023/08/22 09:52:31;;;;;;;5.70;4.80;;;28.80;99.90;;;29.02;72.78;97621.81;5035266;28;20028;-36
2023/08/22 09:54:57;;;;;;;9.57;4.53;;;28.80;99.90;;;29.00;73.47;97602.13;5035769;28;20100;-36
2023/08/22 09:57:27;;;;;;;7.10;4.90;;;28.80;99.90;;;29.08;72.78;97618.44;5037551;28;20342;-36
2023/08/22 09:59:53;;;;;;;7.13;4.53;;;28.80;99.90;;;29.25;73.93;97611.16;5039879;28;20505;-36
2023/08/22 10:02:19;;;;;;;7.65;4.60;;;28.90;99.90;;;29.33;73.19;97622.03;5035917;28;20073;-36
2023/08/22 10:04:46;;;;;;;11.02;5.05;;;29.00;99.90;;;29.38;75.68;97606.09;5030220;28;20120;-37
2023/08/22 10:07:12;;;;;;;6.32;4.45;;;29.10;99.90;;;29.52;72.65;97620.84;5029454;28;20044;-37
2023/08/22 10:09:42;;;;;;;6.38;4.18;;;29.20;99.90;;;29.57;72.79;97623.03;5034428;28;20040;-36
2023/08/22 10:12:12;;;;;;;5.13;4.00;;;29.30;99.90;;;29.55;68.26;97614.22;5027809;28;20348;-36